sensor_id;sensor_type;location;lat;lon;timestamp;pressure;altitude;pressure_sealevel;temperature;humidity
80335;BME280;69653;52.674;13.574;2023-08-06T12:14:44;99443.97;;;17.81;87.08
80335;BME280;69653;52.674;13.574;2023-08-06T12:17:10;99455.09;;;17.88;87.30
80335;BME280;69653;52.674;13.574;2023-08-06T12:19:36;99448.81;;;17.91;86.74
80335;BME280;69653;52.674;13.574;2023-08-06T12:22:01;99443.09;;;18.43;81.15
80335;BME280;69653;52.674;13.574;2023-08-06T12:24:27;99444.59;;;18.71;79.63
80335;BME280;69653;52.674;13.574;2023-08-06T12:26:56;99448.03;;;19.01;78.32
80335;BME280;69653;52.674;13.574;2023-08-06T12:29:23;99447.31;;;19.15;77.98
80335;BME280;69653;52.674;13.574;2023-08-06T12:31:48;99442.88;;;19.03;78.76
80335;BME280;69653;52.674;13.574;2023-08-06T12:34:13;99445.66;;;19.03;78.47
80335;BME280;69653;52.674;13.574;2023-08-06T12:36:39;99444.03;;;18.99;79.08
80335;BME280;69653;52.674;13.574;2023-08-06T12:39:04;99450.75;;;18.98;79.15
80335;BME280;69653;52.674;13.574;2023-08-06T12:41:29;99447.19;;;18.97;79.25
80335;BME280;69653;52.674;13.574;2023-08-06T12:43:55;99447.28;;;19.08;77.50
80335;BME280;69653;52.674;13.574;2023-08-06T12:46:20;99450.53;;;19.20;76.85
80335;BME280;69653;52.674;13.574;2023-08-06T12:48:45;99451.72;;;19.19;77.06
80335;BME280;69653;52.674;13.574;2023-08-06T12:51:10;99448.06;;;19.08;78.81
80335;BME280;69653;52.674;13.574;2023-08-06T12:53:36;99445.63;;;19.00;78.89
80335;BME280;69653;52.674;13.574;2023-08-06T12:56:01;99442.44;;;18.98;77.86
80335;BME280;69653;52.674;13.574;2023-08-06T12:58:27;99447.66;;;19.10;77.60
80335;BME280;69653;52.674;13.574;2023-08-06T13:00:52;99440.56;;;19.09;77.31
80335;BME280;69653;52.674;13.574;2023-08-06T13:03:18;99440.84;;;18.97;78.59
80335;BME280;69653;52.674;13.574;2023-08-06T13:05:43;99443.69;;;19.04;77.52
80335;BME280;69653;52.674;13.574;2023-08-06T13:08:09;99425.81;;;18.94;77.99
80335;BME280;69653;52.674;13.574;2023-08-06T13:10:34;99445.28;;;19.05;77.58
80335;BME280;69653;52.674;13.574;2023-08-06T13:13:00;99438.06;;;18.93;78.42
80335;BME280;69653;52.674;13.574;2023-08-06T13:15:26;99447.97;;;18.94;78.36
80335;BME280;69653;52.674;13.574;2023-08-06T13:17:51;99451.06;;;18.89;78.31
80335;BME280;69653;52.674;13.574;2023-08-06T13:20:17;99435.91;;;18.76;78.32
80335;BME280;69653;52.674;13.574;2023-08-06T13:22:44;99440.66;;;18.72;78.35
80335;BME280;69653;52.674;13.574;2023-08-06T13:25:11;99444.97;;;18.69;79.04
80335;BME280;69653;52.674;13.574;2023-08-06T13:27:36;99452.53;;;18.76;79.03
80335;BME280;69653;52.674;13.574;2023-08-06T13:30:02;99434.56;;;18.56;79.36
80335;BME280;69653;52.674;13.574;2023-08-06T13:32:28;99443.81;;;18.74;78.31
80335;BME280;69653;52.674;13.574;2023-08-06T13:34:53;99439.47;;;18.76;78.26
80335;BME280;69653;52.674;13.574;2023-08-06T13:37:18;99434.00;;;18.83;77.62
80335;BME280;69653;52.674;13.574;2023-08-06T13:39:44;99432.78;;;18.77;78.06
80335;BME280;69653;52.674;13.574;2023-08-06T13:42:09;99437.50;;;18.77;77.01
80335;BME280;69653;52.674;13.574;2023-08-06T13:44:34;99433.63;;;18.85;76.06
80335;BME280;69653;52.674;13.574;2023-08-06T13:47:01;99435.16;;;18.79;76.27
80335;BME280;69653;52.674;13.574;2023-08-06T13:49:26;99438.28;;;18.74;76.58
80335;BME280;69653;52.674;13.574;2023-08-06T13:51:52;99431.44;;;18.61;76.92
80335;BME280;69653;52.674;13.574;2023-08-06T13:54:17;99435.81;;;18.65;76.46
80335;BME280;69653;52.674;13.574;2023-08-06T13:56:42;99436.78;;;18.47;77.55
80335;BME280;69653;52.674;13.574;2023-08-06T13:59:08;99446.22;;;18.38;78.16
80335;BME280;69653;52.674;13.574;2023-08-06T14:01:33;99434.03;;;18.47;77.19
80335;BME280;69653;52.674;13.574;2023-08-06T14:03:58;99438.41;;;18.48;76.96
80335;BME280;69653;52.674;13.574;2023-08-06T14:06:24;99439.56;;;18.47;77.11
80335;BME280;69653;52.674;13.574;2023-08-06T14:08:49;99440.75;;;18.46;77.51
80335;BME280;69653;52.674;13.574;2023-08-06T14:11:14;99431.59;;;18.38;77.71
80335;BME280;69653;52.674;13.574;2023-08-06T14:13:40;99442.66;;;18.38;78.84
80335;BME280;69653;52.674;13.574;2023-08-06T14:16:05;99434.47;;;18.49;77.90
80335;BME280;69653;52.674;13.574;2023-08-06T14:18:30;99442.75;;;18.49;79.15
80335;BME280;69653;52.674;13.574;2023-08-06T14:20:56;99438.59;;;18.28;79.81
80335;BME280;69653;52.674;13.574;2023-08-06T14:23:21;99437.81;;;18.31;79.37
80335;BME280;69653;52.674;13.574;2023-08-06T14:25:46;99434.56;;;18.22;80.58
80335;BME280;69653;52.674;13.574;2023-08-06T14:28:11;99445.22;;;18.20;80.83
80335;BME280;69653;52.674;13.574;2023-08-06T14:30:37;99447.50;;;18.11;81.60
80335;BME280;69653;52.674;13.574;2023-08-06T14:33:02;99441.41;;;17.99;82.67
80335;BME280;69653;52.674;13.574;2023-08-06T14:35:28;99439.88;;;18.01;81.13
80335;BME280;69653;52.674;13.574;2023-08-06T14:37:53;99445.41;;;18.01;81.38
80335;BME280;69653;52.674;13.574;2023-08-06T14:40:19;99449.81;;;18.09;80.54
80335;BME280;69653;52.674;13.574;2023-08-06T14:42:44;99446.97;;;18.02;80.25
80335;BME280;69653;52.674;13.574;2023-08-06T14:45:10;99444.81;;;18.18;79.62
80335;BME280;69653;52.674;13.574;2023-08-06T14:47:35;99444.03;;;18.21;78.90
80335;BME280;69653;52.674;13.574;2023-08-06T14:50:00;99438.47;;;18.18;78.63
80335;BME280;69653;52.674;13.574;2023-08-06T14:52:25;99440.41;;;18.14;79.00
80335;BME280;69653;52.674;13.574;2023-08-06T14:54:51;99445.25;;;18.24;78.25
80335;BME280;69653;52.674;13.574;2023-08-06T14:57:20;99444.78;;;18.15;78.72
80335;BME280;69653;52.674;13.574;2023-08-06T14:59:46;99445.53;;;18.12;78.83
80335;BME280;69653;52.674;13.574;2023-08-06T15:02:12;99443.41;;;18.02;79.37
80335;BME280;69653;52.674;13.574;2023-08-06T15:04:37;99448.94;;;18.02;79.72
80335;BME280;69653;52.674;13.574;2023-08-06T15:07:02;99451.59;;;17.91;80.16
80335;BME280;69653;52.674;13.574;2023-08-06T15:09:28;99449.22;;;17.89;80.29
80335;BME280;69653;52.674;13.574;2023-08-06T15:11:53;99446.81;;;17.88;80.71
80335;BME280;69653;52.674;13.574;2023-08-06T15:14:19;99446.44;;;17.89;80.11
80335;BME280;69653;52.674;13.574;2023-08-06T15:16:46;99455.94;;;17.92;80.43
80335;BME280;69653;52.674;13.574;2023-08-06T15:19:12;99455.28;;;18.02;79.64
80335;BME280;69653;52.674;13.574;2023-08-06T15:21:37;99456.75;;;17.92;80.36
80335;BME280;69653;52.674;13.574;2023-08-06T15:24:02;99455.13;;;18.21;78.51
80335;BME280;69653;52.674;13.574;2023-08-06T15:26:28;99451.97;;;18.23;78.43
80335;BME280;69653;52.674;13.574;2023-08-06T15:28:53;99447.84;;;18.10;78.93
80335;BME280;69653;52.674;13.574;2023-08-06T15:31:20;99451.06;;;18.12;78.60
80335;BME280;69653;52.674;13.574;2023-08-06T15:33:46;99449.41;;;18.07;78.66
80335;BME280;69653;52.674;13.574;2023-08-06T15:36:11;99448.44;;;17.92;79.45
80335;BME280;69653;52.674;13.574;2023-08-06T15:38:36;99453.84;;;17.82;80.13
80335;BME280;69653;52.674;13.574;2023-08-06T15:41:02;99448.41;;;17.89;80.21
80335;BME280;69653;52.674;13.574;2023-08-06T15:43:27;99447.53;;;17.81;80.08
80335;BME280;69653;52.674;13.574;2023-08-06T15:45:52;99442.75;;;17.78;79.81
80335;BME280;69653;52.674;13.574;2023-08-06T15:48:17;99448.56;;;17.70;80.61
80335;BME280;69653;52.674;13.574;2023-08-06T15:50:43;99435.84;;;17.65;80.68
80335;BME280;69653;52.674;13.574;2023-08-06T15:53:08;99449.72;;;17.69;81.07
80335;BME280;69653;52.674;13.574;2023-08-06T15:55:34;99449.09;;;17.79;80.70
80335;BME280;69653;52.674;13.574;2023-08-06T15:58:02;99443.78;;;17.67;81.57
80335;BME280;69653;52.674;13.574;2023-08-06T16:00:28;99443.69;;;17.60;81.64
80335;BME280;69653;52.674;13.574;2023-08-06T16:02:53;99445.56;;;17.56;82.02
80335;BME280;69653;52.674;13.574;2023-08-06T16:05:18;99449.41;;;17.48;82.77
80335;BME280;69653;52.674;13.574;2023-08-06T16:07:43;99457.44;;;17.56;82.10
80335;BME280;69653;52.674;13.574;2023-08-06T16:10:09;99447.09;;;17.53;82.08
80335;BME280;69653;52.674;13.574;2023-08-06T16:12:34;99445.47;;;17.49;81.46
80335;BME280;69653;52.674;13.574;2023-08-06T16:15:00;99443.38;;;17.42;81.64
80335;BME280;69653;52.674;13.574;2023-08-06T16:17:25;99444.94;;;17.39;82.17
80335;BME280;69653;52.674;13.574;2023-08-06T16:19:51;99435.94;;;17.46;81.34
80335;BME280;69653;52.674;13.574;2023-08-06T16:22:17;99445.94;;;17.54;79.82
80335;BME280;69653;52.674;13.574;2023-08-06T16:24:43;99445.25;;;17.34;78.89
80335;BME280;69653;52.674;13.574;2023-08-06T16:27:08;99447.59;;;17.32;79.07
80335;BME280;69653;52.674;13.574;2023-08-06T16:29:35;99452.88;;;17.15;79.28
80335;BME280;69653;52.674;13.574;2023-08-06T16:32:00;99450.91;;;17.15;80.34
80335;BME280;69653;52.674;13.574;2023-08-06T16:34:25;99449.19;;;17.07;79.60
80335;BME280;69653;52.674;13.574;2023-08-06T16:36:51;99452.59;;;16.97;80.13
80335;BME280;69653;52.674;13.574;2023-08-06T16:39:16;99450.81;;;16.85;80.62
80335;BME280;69653;52.674;13.574;2023-08-06T16:41:46;99446.34;;;16.77;81.35
80335;BME280;69653;52.674;13.574;2023-08-06T16:44:11;99447.31;;;16.66;81.61
80335;BME280;69653;52.674;13.574;2023-08-06T16:46:37;99455.03;;;16.57;81.26
80335;BME280;69653;52.674;13.574;2023-08-06T16:49:03;99455.25;;;16.48;81.78
80335;BME280;69653;52.674;13.574;2023-08-06T16:51:29;99447.19;;;16.39;81.92
80335;BME280;69653;52.674;13.574;2023-08-06T16:53:54;99438.19;;;16.42;82.29
80335;BME280;69653;52.674;13.574;2023-08-06T16:56:19;99443.56;;;16.35;82.98
80335;BME280;69653;52.674;13.574;2023-08-06T16:58:44;99435.59;;;16.30;83.31
80335;BME280;69653;52.674;13.574;2023-08-06T17:01:10;99429.13;;;16.23;83.74
80335;BME280;69653;52.674;13.574;2023-08-06T17:03:35;99439.78;;;16.43;83.43
80335;BME280;69653;52.674;13.574;2023-08-06T17:06:01;99439.91;;;16.50;82.54
80335;BME280;69653;52.674;13.574;2023-08-06T17:08:28;99437.81;;;16.63;81.90
80335;BME280;69653;52.674;13.574;2023-08-06T17:10:56;99424.94;;;16.71;81.59
80335;BME280;69653;52.674;13.574;2023-08-06T17:13:21;99430.25;;;16.83;80.71
80335;BME280;69653;52.674;13.574;2023-08-06T17:15:47;99430.06;;;16.95;80.30
80335;BME280;69653;52.674;13.574;2023-08-06T17:18:12;99435.78;;;17.09;79.40
80335;BME280;69653;52.674;13.574;2023-08-06T17:20:41;99426.19;;;17.26;78.02
80335;BME280;69653;52.674;13.574;2023-08-06T17:23:06;99433.59;;;17.18;78.55
80335;BME280;69653;52.674;13.574;2023-08-06T17:25:31;99424.19;;;17.23;78.52
80335;BME280;69653;52.674;13.574;2023-08-06T17:27:59;99414.94;;;17.12;78.53
80335;BME280;69653;52.674;13.574;2023-08-06T17:30:26;99419.50;;;17.01;79.03
80335;BME280;69653;52.674;13.574;2023-08-06T17:32:51;99422.44;;;17.11;78.31
80335;BME280;69653;52.674;13.574;2023-08-06T17:35:16;99418.06;;;17.10;78.82
80335;BME280;69653;52.674;13.574;2023-08-06T17:37:42;99414.66;;;16.94;78.96
80335;BME280;69653;52.674;13.574;2023-08-06T17:40:08;99415.28;;;16.84;79.84
80335;BME280;69653;52.674;13.574;2023-08-06T17:42:33;99419.81;;;16.73;80.14
80335;BME280;69653;52.674;13.574;2023-08-06T17:44:59;99419.19;;;16.83;79.86
80335;BME280;69653;52.674;13.574;2023-08-06T17:47:24;99422.69;;;16.80;79.63
80335;BME280;69653;52.674;13.574;2023-08-06T17:49:49;99417.13;;;16.76;80.15
80335;BME280;69653;52.674;13.574;2023-08-06T17:52:15;99416.03;;;16.81;79.53
80335;BME280;69653;52.674;13.574;2023-08-06T17:54:40;99415.03;;;16.92;79.08
80335;BME280;69653;52.674;13.574;2023-08-06T17:57:05;99411.16;;;16.97;78.78
80335;BME280;69653;52.674;13.574;2023-08-06T17:59:31;99409.13;;;16.94;78.79
80335;BME280;69653;52.674;13.574;2023-08-06T18:01:56;99416.50;;;16.86;79.73
80335;BME280;69653;52.674;13.574;2023-08-06T18:04:21;99414.41;;;16.80;79.83
80335;BME280;69653;52.674;13.574;2023-08-06T18:06:47;99417.63;;;16.82;79.84
80335;BME280;69653;52.674;13.574;2023-08-06T18:09:12;99419.00;;;16.95;79.33
80335;BME280;69653;52.674;13.574;2023-08-06T18:11:37;99409.81;;;16.87;79.48
80335;BME280;69653;52.674;13.574;2023-08-06T18:14:02;99414.69;;;16.97;79.63
80335;BME280;69653;52.674;13.574;2023-08-06T18:16:28;99422.56;;;16.95;79.91
80335;BME280;69653;52.674;13.574;2023-08-06T18:18:54;99409.88;;;16.91;79.49
80335;BME280;69653;52.674;13.574;2023-08-06T18:21:19;99419.94;;;16.80;80.02
80335;BME280;69653;52.674;13.574;2023-08-06T18:23:47;99416.06;;;16.39;81.76
80335;BME280;69653;52.674;13.574;2023-08-06T18:26:12;99417.22;;;16.38;82.21
80335;BME280;69653;52.674;13.574;2023-08-06T18:28:37;99429.84;;;16.39;81.95
80335;BME280;69653;52.674;13.574;2023-08-06T18:31:06;99428.19;;;16.34;82.03
80335;BME280;69653;52.674;13.574;2023-08-06T18:33:31;99440.34;;;16.30;82.43
80335;BME280;69653;52.674;13.574;2023-08-06T18:35:57;99432.31;;;16.44;81.64
80335;BME280;69653;52.674;13.574;2023-08-06T18:38:22;99434.78;;;16.72;80.25
80335;BME280;69653;52.674;13.574;2023-08-06T18:40:56;99430.81;;;16.92;78.90
80335;BME280;69653;52.674;13.574;2023-08-06T18:43:22;99433.13;;;17.16;77.51
80335;BME280;69653;52.674;13.574;2023-08-06T18:45:47;99427.31;;;17.21;76.91
80335;BME280;69653;52.674;13.574;2023-08-06T18:48:12;99430.06;;;17.21;76.80
80335;BME280;69653;52.674;13.574;2023-08-06T18:50:38;99423.03;;;17.01;77.80
80335;BME280;69653;52.674;13.574;2023-08-06T18:53:03;99437.22;;;17.00;77.27
80335;BME280;69653;52.674;13.574;2023-08-06T18:55:32;99436.03;;;16.97;77.85
80335;BME280;69653;52.674;13.574;2023-08-06T18:57:58;99437.06;;;16.89;77.88
80335;BME280;69653;52.674;13.574;2023-08-06T19:00:25;99437.19;;;16.73;78.12
80335;BME280;69653;52.674;13.574;2023-08-06T19:02:51;99436.50;;;16.80;78.47
80335;BME280;69653;52.674;13.574;2023-08-06T19:05:16;99438.53;;;16.83;77.74
80335;BME280;69653;52.674;13.574;2023-08-06T19:07:42;99436.22;;;16.85;77.72
80335;BME280;69653;52.674;13.574;2023-08-06T19:10:07;99440.13;;;16.84;77.50
80335;BME280;69653;52.674;13.574;2023-08-06T19:12:33;99453.56;;;16.63;78.53
80335;BME280;69653;52.674;13.574;2023-08-06T19:14:58;99449.50;;;16.57;78.89
80335;BME280;69653;52.674;13.574;2023-08-06T19:17:23;99452.03;;;16.65;78.46
80335;BME280;69653;52.674;13.574;2023-08-06T19:19:48;99450.75;;;16.59;78.80
80335;BME280;69653;52.674;13.574;2023-08-06T19:22:14;99447.19;;;16.59;78.23
80335;BME280;69653;52.674;13.574;2023-08-06T19:24:39;99458.94;;;16.56;78.93
80335;BME280;69653;52.674;13.574;2023-08-06T19:27:06;99452.41;;;16.64;78.29
80335;BME280;69653;52.674;13.574;2023-08-06T19:29:31;99458.59;;;16.57;78.82
80335;BME280;69653;52.674;13.574;2023-08-06T19:31:56;99453.59;;;16.43;79.32
80335;BME280;69653;52.674;13.574;2023-08-06T19:34:22;99459.88;;;16.21;80.10
80335;BME280;69653;52.674;13.574;2023-08-06T19:36:49;99456.38;;;16.05;81.26
80335;BME280;69653;52.674;13.574;2023-08-06T19:39:14;99473.31;;;15.84;82.09
80335;BME280;69653;52.674;13.574;2023-08-06T19:41:40;99464.94;;;15.81;82.63
80335;BME280;69653;52.674;13.574;2023-08-06T19:44:05;99469.53;;;15.92;81.80
80335;BME280;69653;52.674;13.574;2023-08-06T19:46:30;99471.41;;;15.88;82.13
80335;BME280;69653;52.674;13.574;2023-08-06T19:48:56;99458.84;;;15.72;82.99
80335;BME280;69653;52.674;13.574;2023-08-06T19:51:21;99462.38;;;15.53;83.64
80335;BME280;69653;52.674;13.574;2023-08-06T19:53:47;99466.22;;;15.33;84.78
80335;BME280;69653;52.674;13.574;2023-08-06T19:56:13;99469.59;;;15.26;85.51
80335;BME280;69653;52.674;13.574;2023-08-06T19:58:38;99465.78;;;15.31;85.48
80335;BME280;69653;52.674;13.574;2023-08-06T20:01:04;99462.34;;;15.18;85.93
80335;BME280;69653;52.674;13.574;2023-08-06T20:03:31;99461.53;;;15.18;86.25
80335;BME280;69653;52.674;13.574;2023-08-06T20:05:59;99457.09;;;15.13;85.79
80335;BME280;69653;52.674;13.574;2023-08-06T20:08:25;99459.94;;;15.01;86.42
80335;BME280;69653;52.674;13.574;2023-08-06T20:10:51;99469.47;;;15.03;86.60
80335;BME280;69653;52.674;13.574;2023-08-06T20:13:19;99461.09;;;15.00;86.47
80335;BME280;69653;52.674;13.574;2023-08-06T20:15:44;99469.13;;;15.40;85.20
80335;BME280;69653;52.674;13.574;2023-08-06T20:18:16;99470.66;;;15.72;83.41
80335;BME280;69653;52.674;13.574;2023-08-06T20:20:42;99470.41;;;15.96;81.94
80335;BME280;69653;52.674;13.574;2023-08-06T20:23:08;99463.28;;;15.95;81.21
80335;BME280;69653;52.674;13.574;2023-08-06T20:25:33;99461.88;;;15.86;80.90
80335;BME280;69653;52.674;13.574;2023-08-06T20:28:00;99457.72;;;15.92;80.98
80335;BME280;69653;52.674;13.574;2023-08-06T20:30:25;99460.00;;;15.90;80.72
80335;BME280;69653;52.674;13.574;2023-08-06T20:32:50;99453.97;;;15.65;80.82
80335;BME280;69653;52.674;13.574;2023-08-06T20:35:16;99449.69;;;15.68;81.25
80335;BME280;69653;52.674;13.574;2023-08-06T20:37:41;99443.38;;;15.67;81.27
80335;BME280;69653;52.674;13.574;2023-08-06T20:40:08;99456.38;;;15.86;80.27
80335;BME280;69653;52.674;13.574;2023-08-06T20:42:33;99461.31;;;15.77;80.21
80335;BME280;69653;52.674;13.574;2023-08-06T20:44:58;99455.59;;;15.66;80.41
80335;BME280;69653;52.674;13.574;2023-08-06T20:47:24;99451.28;;;15.49;81.29
80335;BME280;69653;52.674;13.574;2023-08-06T20:49:49;99448.25;;;15.39;81.91
80335;BME280;69653;52.674;13.574;2023-08-06T20:52:14;99456.78;;;15.49;81.51
80335;BME280;69653;52.674;13.574;2023-08-06T20:54:39;99451.97;;;15.46;81.82
80335;BME280;69653;52.674;13.574;2023-08-06T20:57:05;99453.13;;;15.45;81.28
80335;BME280;69653;52.674;13.574;2023-08-06T20:59:31;99456.25;;;15.44;81.00
80335;BME280;69653;52.674;13.574;2023-08-06T21:01:56;99459.38;;;15.27;81.68
80335;BME280;69653;52.674;13.574;2023-08-06T21:04:22;99462.84;;;15.24;80.86
80335;BME280;69653;52.674;13.574;2023-08-06T21:06:47;99450.53;;;15.18;81.84
80335;BME280;69653;52.674;13.574;2023-08-06T21:09:12;99456.63;;;15.11;82.48
80335;BME280;69653;52.674;13.574;2023-08-06T21:11:38;99436.84;;;15.21;82.61
80335;BME280;69653;52.674;13.574;2023-08-06T21:14:03;99441.75;;;15.47;81.38
80335;BME280;69653;52.674;13.574;2023-08-06T21:16:28;99439.06;;;15.66;79.63
80335;BME280;69653;52.674;13.574;2023-08-06T21:18:54;99430.03;;;15.50;79.81
80335;BME280;69653;52.674;13.574;2023-08-06T21:21:19;99438.75;;;15.52;80.50
80335;BME280;69653;52.674;13.574;2023-08-06T21:23:44;99428.56;;;15.21;81.76
80335;BME280;69653;52.674;13.574;2023-08-06T21:26:09;99421.50;;;14.89;82.42
80335;BME280;69653;52.674;13.574;2023-08-06T21:28:35;99434.66;;;14.80;83.37
80335;BME280;69653;52.674;13.574;2023-08-06T21:31:07;99409.09;;;14.64;83.71
80335;BME280;69653;52.674;13.574;2023-08-06T21:33:33;99425.88;;;14.74;84.05
80335;BME280;69653;52.674;13.574;2023-08-06T21:36:00;99422.69;;;14.88;83.80
80335;BME280;69653;52.674;13.574;2023-08-06T21:38:32;99428.69;;;15.44;81.81
80335;BME280;69653;52.674;13.574;2023-08-06T21:41:09;99421.88;;;15.73;79.89
80335;BME280;69653;52.674;13.574;2023-08-06T21:43:35;99419.25;;;15.80;78.74
80335;BME280;69653;52.674;13.574;2023-08-06T21:46:04;99420.19;;;15.68;79.07
80335;BME280;69653;52.674;13.574;2023-08-06T21:48:32;99429.06;;;15.42;79.74
80335;BME280;69653;52.674;13.574;2023-08-06T21:51:01;99433.38;;;15.24;80.54
80335;BME280;69653;52.674;13.574;2023-08-06T21:53:29;99432.16;;;14.90;81.49
80335;BME280;69653;52.674;13.574;2023-08-06T21:55:58;99439.09;;;14.69;82.47
80335;BME280;69653;52.674;13.574;2023-08-06T21:58:24;99435.97;;;14.39;83.09
80335;BME280;69653;52.674;13.574;2023-08-06T22:00:50;99438.22;;;14.21;83.92
80335;BME280;69653;52.674;13.574;2023-08-06T22:03:15;99428.22;;;14.01;84.61
80335;BME280;69653;52.674;13.574;2023-08-06T22:05:41;99432.41;;;13.95;85.03
80335;BME280;69653;52.674;13.574;2023-08-06T22:08:06;99424.44;;;13.78;84.77
80335;BME280;69653;52.674;13.574;2023-08-06T22:10:31;99439.53;;;13.84;86.23
80335;BME280;69653;52.674;13.574;2023-08-06T22:12:57;99440.47;;;13.76;86.20
80335;BME280;69653;52.674;13.574;2023-08-06T22:15:22;99445.28;;;13.79;86.17
80335;BME280;69653;52.674;13.574;2023-08-06T22:17:47;99439.88;;;13.82;85.93
80335;BME280;69653;52.674;13.574;2023-08-06T22:20:13;99445.22;;;13.91;85.95
80335;BME280;69653;52.674;13.574;2023-08-06T22:22:38;99431.84;;;13.89;85.51
80335;BME280;69653;52.674;13.574;2023-08-06T22:25:05;99442.69;;;13.98;85.42
80335;BME280;69653;52.674;13.574;2023-08-06T22:27:31;99444.31;;;14.15;84.61
80335;BME280;69653;52.674;13.574;2023-08-06T22:29:56;99441.22;;;14.16;84.39
80335;BME280;69653;52.674;13.574;2023-08-06T22:32:21;99447.16;;;14.18;84.54
80335;BME280;69653;52.674;13.574;2023-08-06T22:34:47;99448.31;;;14.17;83.93
80335;BME280;69653;52.674;13.574;2023-08-06T22:37:12;99444.31;;;14.15;84.38
80335;BME280;69653;52.674;13.574;2023-08-06T22:39:37;99444.25;;;14.27;84.05
80335;BME280;69653;52.674;13.574;2023-08-06T22:42:03;99444.97;;;14.24;83.30
80335;BME280;69653;52.674;13.574;2023-08-06T22:44:28;99454.09;;;14.28;83.50
80335;BME280;69653;52.674;13.574;2023-08-06T22:46:53;99463.16;;;14.28;83.40
80335;BME280;69653;52.674;13.574;2023-08-06T22:49:19;99457.66;;;14.28;83.39
80335;BME280;69653;52.674;13.574;2023-08-06T22:51:44;99449.03;;;14.14;83.29
80335;BME280;69653;52.674;13.574;2023-08-06T22:54:09;99462.97;;;14.21;83.46
80335;BME280;69653;52.674;13.574;2023-08-06T22:56:35;99470.25;;;14.29;83.18
80335;BME280;69653;52.674;13.574;2023-08-06T22:59:00;99460.72;;;14.11;83.37
80335;BME280;69653;52.674;13.574;2023-08-06T23:01:26;99470.47;;;14.08;83.70
80335;BME280;69653;52.674;13.574;2023-08-06T23:03:51;99472.50;;;14.12;83.73
80335;BME280;69653;52.674;13.574;2023-08-06T23:06:16;99472.16;;;14.13;83.49
80335;BME280;69653;52.674;13.574;2023-08-06T23:08:41;99470.03;;;14.22;83.57
80335;BME280;69653;52.674;13.574;2023-08-06T23:11:07;99475.34;;;14.15;83.32
80335;BME280;69653;52.674;13.574;2023-08-06T23:13:33;99474.97;;;14.29;82.80
80335;BME280;69653;52.674;13.574;2023-08-06T23:15:58;99476.19;;;14.31;82.84
80335;BME280;69653;52.674;13.574;2023-08-06T23:18:24;99482.41;;;14.28;82.74
80335;BME280;69653;52.674;13.574;2023-08-06T23:20:49;99476.63;;;14.33;82.76
80335;BME280;69653;52.674;13.574;2023-08-06T23:23:14;99478.03;;;14.39;82.16
80335;BME280;69653;52.674;13.574;2023-08-06T23:25:40;99473.69;;;14.38;82.07
80335;BME280;69653;52.674;13.574;2023-08-06T23:28:05;99472.88;;;14.38;82.05
80335;BME280;69653;52.674;13.574;2023-08-06T23:30:30;99469.81;;;14.27;82.35
80335;BME280;69653;52.674;13.574;2023-08-06T23:32:56;99470.13;;;14.38;81.92
80335;BME280;69653;52.674;13.574;2023-08-06T23:35:21;99463.47;;;14.39;82.00
80335;BME280;69653;52.674;13.574;2023-08-06T23:37:47;99463.13;;;14.56;81.28
80335;BME280;69653;52.674;13.574;2023-08-06T23:40:12;99456.56;;;14.45;81.84
80335;BME280;69653;52.674;13.574;2023-08-06T23:42:38;99458.44;;;14.56;81.27
80335;BME280;69653;52.674;13.574;2023-08-06T23:45:03;99450.38;;;14.64;80.95
80335;BME280;69653;52.674;13.574;2023-08-06T23:47:29;99442.66;;;14.53;81.27
80335;BME280;69653;52.674;13.574;2023-08-06T23:49:54;99442.72;;;14.57;81.04
80335;BME280;69653;52.674;13.574;2023-08-06T23:52:19;99438.75;;;14.54;81.15
80335;BME280;69653;52.674;13.574;2023-08-06T23:54:44;99434.13;;;14.59;80.91
80335;BME280;69653;52.674;13.574;2023-08-06T23:57:10;99435.63;;;14.56;80.99
80335;BME280;69653;52.674;13.574;2023-08-06T23:59:35;99441.31;;;14.63;80.70
